Hauptseite
METAR-TAF:

METAR-TAF

Flughäfen :

Flughafen Bergamo

Bergamo, Italien

Breite: 45-40N, Länge: 009-42E, Höhe: 238 m

Beobachtung

Neuester Wetterbericht von vor 23 Minuten, um 21:20 UTC
Wind 4 kt aus Nord
Temperatur 0°C
Luftfeuchtigkeit 64%
Luftdruck 1018 hPa
Sichtweite 10 km oder mehr
keine Wolken unter 1500 m und keine Kumulonimbus oder Gewitterwolken

METAR: LIME 122120Z 36004KT CAVOK M00/M06 Q1018 NOSIG

Zeit: 22:43 (21:43 UTC)

Prognose

Neuester Wetterbericht von vor 4 Stunden und 43 Minuten, um 17:00 UTC
Gültige Prognose vom 12 um 18 UTC bis 13 um 18 UTC
Wind 5 kt aus unterschiedlichen Richtungen
Sichtweite 10 km oder mehr
Aufgelockert bewölkt in der Höhe von 3000 ft
Durchbrochene Bewölkung in der Höhe von 6000 ft

TAF: LIME 121700Z 1218/1318 VRB05KT 9999 SCT030 BKN060

Wetterbeobachtungen und Prognosen von mehr als 4000 Flughäfen (METAR und TAF Bericht).

Die verfügbaren Stationen werden durch gelbe und rote Markierungen auf der Karte dargestellt.

Führen Sie die Maus auf sie, um den Namen der Station zu sehen.

Darauf klicken, um die Beobachtung von Wetterbeobachtungen und Prognosen zu sehen.

Um die Karte zu ändern : klicken Sie auf den grünen Tasten mit einem schwarzen Kreuz Zum Vergrößern, auf den grünen Button mit einem Gedankenstrich zu verkleinern, oder auf die grünen Pfeile für benachbarte Karten.


METAR-TAF: